sensor_id;sensor_type;location;lat;lon;timestamp;P1;durP1;ratioP1;P2;durP2;ratioP2
7142;SDS011;3613;48.902;9.204;2024-03-23T00:53:49;6.23;;;4.30;;
7142;SDS011;3613;48.902;9.204;2024-03-23T00:56:14;5.53;;;4.47;;
7142;SDS011;3613;48.902;9.204;2024-03-23T00:58:40;6.30;;;4.57;;
7142;SDS011;3613;48.902;9.204;2024-03-23T01:01:06;8.10;;;4.37;;
7142;SDS011;3613;48.902;9.204;2024-03-23T01:03:31;8.53;;;4.93;;
7142;SDS011;3613;48.902;9.204;2024-03-23T01:06:00;6.30;;;4.40;;
7142;SDS011;3613;48.902;9.204;2024-03-23T01:08:26;6.13;;;4.03;;
7142;SDS011;3613;48.902;9.204;2024-03-23T01:10:55;5.60;;;4.33;;
7142;SDS011;3613;48.902;9.204;2024-03-23T01:13:24;5.00;;;3.87;;
7142;SDS011;3613;48.902;9.204;2024-03-23T01:15:51;4.53;;;3.77;;
7142;SDS011;3613;48.902;9.204;2024-03-23T01:18:19;5.73;;;4.13;;
7142;SDS011;3613;48.902;9.204;2024-03-23T01:20:46;5.60;;;3.87;;
7142;SDS011;3613;48.902;9.204;2024-03-23T01:23:11;6.53;;;4.47;;
7142;SDS011;3613;48.902;9.204;2024-03-23T01:25:37;5.97;;;4.20;;
7142;SDS011;3613;48.902;9.204;2024-03-23T01:28:03;6.00;;;4.67;;
7142;SDS011;3613;48.902;9.204;2024-03-23T01:30:32;6.13;;;4.03;;
7142;SDS011;3613;48.902;9.204;2024-03-23T01:32:58;6.27;;;3.97;;
7142;SDS011;3613;48.902;9.204;2024-03-23T01:35:24;6.17;;;4.40;;
7142;SDS011;3613;48.902;9.204;2024-03-23T01:37:50;7.30;;;4.40;;
7142;SDS011;3613;48.902;9.204;2024-03-23T01:40:21;5.57;;;3.93;;
7142;SDS011;3613;48.902;9.204;2024-03-23T01:42:56;4.37;;;3.63;;
7142;SDS011;3613;48.902;9.204;2024-03-23T01:45:22;6.23;;;4.20;;
7142;SDS011;3613;48.902;9.204;2024-03-23T01:47:48;5.57;;;4.43;;
7142;SDS011;3613;48.902;9.204;2024-03-23T01:50:15;6.13;;;4.60;;
7142;SDS011;3613;48.902;9.204;2024-03-23T01:52:41;5.23;;;4.30;;
7142;SDS011;3613;48.902;9.204;2024-03-23T01:55:07;5.10;;;4.30;;
7142;SDS011;3613;48.902;9.204;2024-03-23T01:57:33;6.00;;;4.47;;
7142;SDS011;3613;48.902;9.204;2024-03-23T01:59:59;6.63;;;4.40;;
7142;SDS011;3613;48.902;9.204;2024-03-23T02:02:25;5.73;;;3.97;;
7142;SDS011;3613;48.902;9.204;2024-03-23T02:04:50;5.93;;;3.90;;
7142;SDS011;3613;48.902;9.204;2024-03-23T02:07:16;4.53;;;3.93;;
7142;SDS011;3613;48.902;9.204;2024-03-23T02:09:42;5.73;;;3.93;;
7142;SDS011;3613;48.902;9.204;2024-03-23T02:12:11;6.87;;;4.67;;
7142;SDS011;3613;48.902;9.204;2024-03-23T02:14:36;7.57;;;4.70;;
7142;SDS011;3613;48.902;9.204;2024-03-23T02:17:02;5.67;;;4.10;;
7142;SDS011;3613;48.902;9.204;2024-03-23T02:19:27;5.20;;;3.70;;
7142;SDS011;3613;48.902;9.204;2024-03-23T02:21:53;5.80;;;4.13;;
7142;SDS011;3613;48.902;9.204;2024-03-23T02:24:18;7.23;;;4.23;;
7142;SDS011;3613;48.902;9.204;2024-03-23T02:26:44;6.57;;;4.10;;
7142;SDS011;3613;48.902;9.204;2024-03-23T02:29:10;6.27;;;4.47;;
7142;SDS011;3613;48.902;9.204;2024-03-23T02:31:36;4.83;;;3.57;;
7142;SDS011;3613;48.902;9.204;2024-03-23T02:34:02;6.50;;;4.23;;
7142;SDS011;3613;48.902;9.204;2024-03-23T02:36:28;5.60;;;3.90;;
7142;SDS011;3613;48.902;9.204;2024-03-23T02:38:55;5.60;;;3.80;;
7142;SDS011;3613;48.902;9.204;2024-03-23T02:41:21;4.80;;;4.20;;
7142;SDS011;3613;48.902;9.204;2024-03-23T02:43:51;5.20;;;4.03;;
7142;SDS011;3613;48.902;9.204;2024-03-23T02:46:16;5.53;;;3.90;;
7142;SDS011;3613;48.902;9.204;2024-03-23T02:48:42;5.13;;;3.83;;
7142;SDS011;3613;48.902;9.204;2024-03-23T02:51:10;5.33;;;3.63;;
7142;SDS011;3613;48.902;9.204;2024-03-23T02:53:38;5.73;;;3.83;;
7142;SDS011;3613;48.902;9.204;2024-03-23T02:56:03;5.50;;;4.27;;
7142;SDS011;3613;48.902;9.204;2024-03-23T02:58:29;5.70;;;4.00;;
7142;SDS011;3613;48.902;9.204;2024-03-23T03:00:54;4.73;;;3.60;;
7142;SDS011;3613;48.902;9.204;2024-03-23T03:03:20;7.47;;;4.67;;
7142;SDS011;3613;48.902;9.204;2024-03-23T03:05:46;5.60;;;4.27;;
7142;SDS011;3613;48.902;9.204;2024-03-23T03:08:11;4.63;;;3.90;;
7142;SDS011;3613;48.902;9.204;2024-03-23T03:10:37;5.10;;;4.03;;
7142;SDS011;3613;48.902;9.204;2024-03-23T03:13:05;5.93;;;3.97;;
7142;SDS011;3613;48.902;9.204;2024-03-23T03:15:30;4.80;;;3.47;;
7142;SDS011;3613;48.902;9.204;2024-03-23T03:17:56;4.83;;;3.70;;
7142;SDS011;3613;48.902;9.204;2024-03-23T03:20:21;5.90;;;3.90;;
7142;SDS011;3613;48.902;9.204;2024-03-23T03:22:48;4.87;;;3.60;;
7142;SDS011;3613;48.902;9.204;2024-03-23T03:25:14;7.07;;;4.57;;
7142;SDS011;3613;48.902;9.204;2024-03-23T03:27:39;5.40;;;3.80;;
7142;SDS011;3613;48.902;9.204;2024-03-23T03:30:05;4.63;;;3.50;;
7142;SDS011;3613;48.902;9.204;2024-03-23T03:32:33;3.83;;;3.40;;
7142;SDS011;3613;48.902;9.204;2024-03-23T03:34:59;5.83;;;3.87;;
7142;SDS011;3613;48.902;9.204;2024-03-23T03:37:24;5.10;;;3.60;;
7142;SDS011;3613;48.902;9.204;2024-03-23T03:39:50;6.10;;;4.17;;
7142;SDS011;3613;48.902;9.204;2024-03-23T03:42:18;4.77;;;3.57;;
7142;SDS011;3613;48.902;9.204;2024-03-23T03:44:43;5.03;;;3.53;;
7142;SDS011;3613;48.902;9.204;2024-03-23T03:47:09;4.67;;;4.10;;
7142;SDS011;3613;48.902;9.204;2024-03-23T03:49:34;4.53;;;3.67;;
7142;SDS011;3613;48.902;9.204;2024-03-23T03:52:00;4.93;;;3.77;;
7142;SDS011;3613;48.902;9.204;2024-03-23T03:54:27;4.37;;;3.63;;
7142;SDS011;3613;48.902;9.204;2024-03-23T03:56:56;4.67;;;3.53;;
7142;SDS011;3613;48.902;9.204;2024-03-23T03:59:21;5.07;;;3.63;;
7142;SDS011;3613;48.902;9.204;2024-03-23T04:01:47;5.70;;;4.17;;
7142;SDS011;3613;48.902;9.204;2024-03-23T04:04:12;5.90;;;3.67;;
7142;SDS011;3613;48.902;9.204;2024-03-23T04:06:41;4.97;;;3.77;;
7142;SDS011;3613;48.902;9.204;2024-03-23T04:09:08;4.77;;;3.80;;
7142;SDS011;3613;48.902;9.204;2024-03-23T04:11:35;4.60;;;3.00;;
7142;SDS011;3613;48.902;9.204;2024-03-23T04:14:00;5.33;;;4.10;;
7142;SDS011;3613;48.902;9.204;2024-03-23T04:16:27;4.40;;;3.60;;
7142;SDS011;3613;48.902;9.204;2024-03-23T04:18:53;4.10;;;3.57;;
7142;SDS011;3613;48.902;9.204;2024-03-23T04:21:19;4.47;;;3.70;;
7142;SDS011;3613;48.902;9.204;2024-03-23T04:23:45;3.90;;;3.03;;
7142;SDS011;3613;48.902;9.204;2024-03-23T04:26:11;4.80;;;3.33;;
7142;SDS011;3613;48.902;9.204;2024-03-23T04:28:36;4.03;;;3.40;;
7142;SDS011;3613;48.902;9.204;2024-03-23T04:31:05;4.23;;;3.30;;
7142;SDS011;3613;48.902;9.204;2024-03-23T04:33:31;4.37;;;3.80;;
7142;SDS011;3613;48.902;9.204;2024-03-23T04:35:56;4.40;;;3.43;;
7142;SDS011;3613;48.902;9.204;2024-03-23T04:38:22;3.97;;;3.33;;
7142;SDS011;3613;48.902;9.204;2024-03-23T04:40:57;4.67;;;3.40;;
7142;SDS011;3613;48.902;9.204;2024-03-23T04:43:23;4.30;;;3.30;;
7142;SDS011;3613;48.902;9.204;2024-03-23T04:45:50;4.40;;;3.50;;
7142;SDS011;3613;48.902;9.204;2024-03-23T04:48:15;5.20;;;3.60;;
7142;SDS011;3613;48.902;9.204;2024-03-23T04:50:43;4.03;;;3.27;;
7142;SDS011;3613;48.902;9.204;2024-03-23T04:53:11;4.47;;;3.50;;
7142;SDS011;3613;48.902;9.204;2024-03-23T04:55:37;5.27;;;3.67;;
7142;SDS011;3613;48.902;9.204;2024-03-23T04:58:03;4.70;;;3.40;;
7142;SDS011;3613;48.902;9.204;2024-03-23T05:00:28;4.07;;;3.13;;
7142;SDS011;3613;48.902;9.204;2024-03-23T05:02:54;3.77;;;3.13;;
7142;SDS011;3613;48.902;9.204;2024-03-23T05:05:22;5.27;;;3.30;;
7142;SDS011;3613;48.902;9.204;2024-03-23T05:07:48;4.07;;;3.57;;
7142;SDS011;3613;48.902;9.204;2024-03-23T05:10:14;4.20;;;3.27;;
7142;SDS011;3613;48.902;9.204;2024-03-23T05:12:39;4.90;;;3.10;;
7142;SDS011;3613;48.902;9.204;2024-03-23T05:15:05;4.80;;;3.90;;
7142;SDS011;3613;48.902;9.204;2024-03-23T05:17:32;4.20;;;3.43;;
7142;SDS011;3613;48.902;9.204;2024-03-23T05:19:59;3.80;;;3.20;;
7142;SDS011;3613;48.902;9.204;2024-03-23T05:22:27;3.90;;;2.97;;
7142;SDS011;3613;48.902;9.204;2024-03-23T05:24:52;5.50;;;3.53;;
7142;SDS011;3613;48.902;9.204;2024-03-23T05:27:21;3.93;;;3.17;;
7142;SDS011;3613;48.902;9.204;2024-03-23T05:29:48;5.07;;;2.90;;
7142;SDS011;3613;48.902;9.204;2024-03-23T05:32:16;4.83;;;3.60;;
7142;SDS011;3613;48.902;9.204;2024-03-23T05:34:41;4.97;;;3.63;;
7142;SDS011;3613;48.902;9.204;2024-03-23T05:37:07;5.20;;;3.57;;
7142;SDS011;3613;48.902;9.204;2024-03-23T05:39:33;4.03;;;3.63;;
7142;SDS011;3613;48.902;9.204;2024-03-23T05:42:00;3.70;;;3.00;;
7142;SDS011;3613;48.902;9.204;2024-03-23T05:44:26;4.63;;;3.03;;
7142;SDS011;3613;48.902;9.204;2024-03-23T05:46:51;4.00;;;3.37;;
7142;SDS011;3613;48.902;9.204;2024-03-23T05:49:17;4.87;;;3.17;;
7142;SDS011;3613;48.902;9.204;2024-03-23T05:51:43;4.07;;;3.37;;
7142;SDS011;3613;48.902;9.204;2024-03-23T05:54:09;4.73;;;3.30;;
7142;SDS011;3613;48.902;9.204;2024-03-23T05:56:34;4.40;;;3.00;;
7142;SDS011;3613;48.902;9.204;2024-03-23T05:59:00;3.47;;;3.03;;
7142;SDS011;3613;48.902;9.204;2024-03-23T06:01:25;4.13;;;3.00;;
7142;SDS011;3613;48.902;9.204;2024-03-23T06:03:53;3.90;;;2.87;;
7142;SDS011;3613;48.902;9.204;2024-03-23T06:06:19;3.30;;;3.00;;
7142;SDS011;3613;48.902;9.204;2024-03-23T06:08:45;3.80;;;3.13;;
7142;SDS011;3613;48.902;9.204;2024-03-23T06:11:10;4.50;;;3.40;;
7142;SDS011;3613;48.902;9.204;2024-03-23T06:13:36;4.00;;;3.00;;
7142;SDS011;3613;48.902;9.204;2024-03-23T06:16:04;3.67;;;2.67;;
7142;SDS011;3613;48.902;9.204;2024-03-23T06:18:30;5.03;;;2.90;;
7142;SDS011;3613;48.902;9.204;2024-03-23T06:20:58;3.90;;;3.17;;
7142;SDS011;3613;48.902;9.204;2024-03-23T06:23:24;3.90;;;3.20;;
7142;SDS011;3613;48.902;9.204;2024-03-23T06:25:49;3.70;;;3.33;;
7142;SDS011;3613;48.902;9.204;2024-03-23T06:28:15;3.20;;;2.83;;
7142;SDS011;3613;48.902;9.204;2024-03-23T06:30:41;3.53;;;2.80;;
7142;SDS011;3613;48.902;9.204;2024-03-23T06:33:09;4.13;;;2.83;;
7142;SDS011;3613;48.902;9.204;2024-03-23T06:35:34;3.37;;;2.70;;
7142;SDS011;3613;48.902;9.204;2024-03-23T06:38:00;3.13;;;2.80;;
7142;SDS011;3613;48.902;9.204;2024-03-23T06:40:28;2.97;;;2.67;;
7142;SDS011;3613;48.902;9.204;2024-03-23T06:42:53;4.17;;;2.87;;
7142;SDS011;3613;48.902;9.204;2024-03-23T06:45:19;2.93;;;2.63;;
7142;SDS011;3613;48.902;9.204;2024-03-23T06:47:48;3.20;;;2.90;;
7142;SDS011;3613;48.902;9.204;2024-03-23T06:50:15;3.73;;;3.00;;
7142;SDS011;3613;48.902;9.204;2024-03-23T06:52:41;2.93;;;2.53;;
7142;SDS011;3613;48.902;9.204;2024-03-23T06:55:07;3.33;;;2.73;;
7142;SDS011;3613;48.902;9.204;2024-03-23T06:57:33;2.90;;;2.47;;
7142;SDS011;3613;48.902;9.204;2024-03-23T06:59:59;3.27;;;2.50;;
7142;SDS011;3613;48.902;9.204;2024-03-23T07:02:27;3.43;;;3.10;;
7142;SDS011;3613;48.902;9.204;2024-03-23T07:04:55;2.93;;;2.60;;
7142;SDS011;3613;48.902;9.204;2024-03-23T07:07:21;4.37;;;2.60;;
7142;SDS011;3613;48.902;9.204;2024-03-23T07:09:49;3.00;;;2.70;;
7142;SDS011;3613;48.902;9.204;2024-03-23T07:12:15;2.70;;;2.50;;
7142;SDS011;3613;48.902;9.204;2024-03-23T07:14:41;3.50;;;2.80;;
7142;SDS011;3613;48.902;9.204;2024-03-23T07:17:06;3.27;;;2.97;;
7142;SDS011;3613;48.902;9.204;2024-03-23T07:19:32;3.43;;;2.47;;
7142;SDS011;3613;48.902;9.204;2024-03-23T07:21:57;3.00;;;2.70;;
7142;SDS011;3613;48.902;9.204;2024-03-23T07:24:23;2.43;;;2.10;;
7142;SDS011;3613;48.902;9.204;2024-03-23T07:26:48;2.90;;;2.60;;
7142;SDS011;3613;48.902;9.204;2024-03-23T07:29:16;3.07;;;2.60;;
7142;SDS011;3613;48.902;9.204;2024-03-23T07:31:41;3.30;;;2.60;;
7142;SDS011;3613;48.902;9.204;2024-03-23T07:34:07;4.13;;;3.10;;
7142;SDS011;3613;48.902;9.204;2024-03-23T07:36:33;3.03;;;2.30;;
7142;SDS011;3613;48.902;9.204;2024-03-23T07:38:58;3.03;;;2.23;;
7142;SDS011;3613;48.902;9.204;2024-03-23T07:41:24;3.43;;;2.70;;
7142;SDS011;3613;48.902;9.204;2024-03-23T07:43:50;4.13;;;3.17;;
7142;SDS011;3613;48.902;9.204;2024-03-23T07:46:15;3.53;;;2.43;;
7142;SDS011;3613;48.902;9.204;2024-03-23T07:48:41;3.07;;;2.27;;
7142;SDS011;3613;48.902;9.204;2024-03-23T07:51:10;3.07;;;2.30;;
7142;SDS011;3613;48.902;9.204;2024-03-23T07:53:42;3.33;;;2.50;;
7142;SDS011;3613;48.902;9.204;2024-03-23T07:56:11;3.50;;;2.73;;
7142;SDS011;3613;48.902;9.204;2024-03-23T07:58:37;3.30;;;2.23;;
7142;SDS011;3613;48.902;9.204;2024-03-23T08:01:04;2.53;;;2.33;;
7142;SDS011;3613;48.902;9.204;2024-03-23T08:03:32;3.63;;;2.17;;
7142;SDS011;3613;48.902;9.204;2024-03-23T08:06:06;3.80;;;2.40;;
7142;SDS011;3613;48.902;9.204;2024-03-23T08:08:42;3.13;;;2.50;;
7142;SDS011;3613;48.902;9.204;2024-03-23T08:11:11;3.13;;;2.40;;
7142;SDS011;3613;48.902;9.204;2024-03-23T08:13:38;3.03;;;2.43;;
7142;SDS011;3613;48.902;9.204;2024-03-23T08:16:05;4.20;;;2.80;;
7142;SDS011;3613;48.902;9.204;2024-03-23T08:18:31;3.73;;;2.73;;
7142;SDS011;3613;48.902;9.204;2024-03-23T08:23:29;3.43;;;2.60;;
7142;SDS011;3613;48.902;9.204;2024-03-23T08:25:59;2.80;;;2.50;;
7142;SDS011;3613;48.902;9.204;2024-03-23T08:28:26;3.23;;;2.63;;
7142;SDS011;3613;48.902;9.204;2024-03-23T08:30:54;2.77;;;2.20;;
7142;SDS011;3613;48.902;9.204;2024-03-23T08:33:21;2.87;;;2.60;;
7142;SDS011;3613;48.902;9.204;2024-03-23T08:35:58;3.17;;;2.60;;
7142;SDS011;3613;48.902;9.204;2024-03-23T08:38:25;2.57;;;2.33;;
7142;SDS011;3613;48.902;9.204;2024-03-23T08:40:58;3.67;;;2.30;;
7142;SDS011;3613;48.902;9.204;2024-03-23T08:43:25;1.63;;;1.47;;
7142;SDS011;3613;48.902;9.204;2024-03-23T08:45:51;1.70;;;1.60;;
7142;SDS011;3613;48.902;9.204;2024-03-23T08:48:20;1.57;;;1.30;;
7142;SDS011;3613;48.902;9.204;2024-03-23T08:50:46;1.53;;;1.30;;
7142;SDS011;3613;48.902;9.204;2024-03-23T08:53:12;1.93;;;1.33;;
7142;SDS011;3613;48.902;9.204;2024-03-23T08:55:40;1.23;;;1.10;;
7142;SDS011;3613;48.902;9.204;2024-03-23T08:58:17;1.57;;;0.97;;
7142;SDS011;3613;48.902;9.204;2024-03-23T09:00:45;0.97;;;0.90;;
7142;SDS011;3613;48.902;9.204;2024-03-23T09:03:15;1.83;;;1.60;;
7142;SDS011;3613;48.902;9.204;2024-03-23T09:05:41;0.83;;;0.80;;
7142;SDS011;3613;48.902;9.204;2024-03-23T09:08:07;3.30;;;1.40;;
7142;SDS011;3613;48.902;9.204;2024-03-23T09:10:38;1.27;;;1.03;;
7142;SDS011;3613;48.902;9.204;2024-03-23T09:13:07;1.53;;;1.10;;
7142;SDS011;3613;48.902;9.204;2024-03-23T09:15:34;1.27;;;1.00;;
7142;SDS011;3613;48.902;9.204;2024-03-23T09:18:00;1.60;;;1.10;;
7142;SDS011;3613;48.902;9.204;2024-03-23T09:20:28;1.17;;;1.07;;
7142;SDS011;3613;48.902;9.204;2024-03-23T09:22:57;1.20;;;1.00;;
7142;SDS011;3613;48.902;9.204;2024-03-23T09:25:23;1.80;;;1.10;;
7142;SDS011;3613;48.902;9.204;2024-03-23T09:27:53;1.10;;;0.97;;
7142;SDS011;3613;48.902;9.204;2024-03-23T09:30:19;2.07;;;1.30;;
7142;SDS011;3613;48.902;9.204;2024-03-23T09:32:45;1.27;;;1.10;;
7142;SDS011;3613;48.902;9.204;2024-03-23T09:35:11;2.00;;;1.33;;
7142;SDS011;3613;48.902;9.204;2024-03-23T09:37:37;1.37;;;1.00;;
7142;SDS011;3613;48.902;9.204;2024-03-23T09:40:05;1.03;;;0.90;;
7142;SDS011;3613;48.902;9.204;2024-03-23T09:42:34;1.00;;;0.93;;
7142;SDS011;3613;48.902;9.204;2024-03-23T09:45:00;1.57;;;1.30;;
7142;SDS011;3613;48.902;9.204;2024-03-23T09:47:26;1.80;;;1.40;;
7142;SDS011;3613;48.902;9.204;2024-03-23T09:49:53;1.73;;;1.30;;
7142;SDS011;3613;48.902;9.204;2024-03-23T09:52:19;1.37;;;1.07;;
7142;SDS011;3613;48.902;9.204;2024-03-23T09:54:47;1.20;;;1.10;;
7142;SDS011;3613;48.902;9.204;2024-03-23T09:57:15;1.47;;;1.20;;
7142;SDS011;3613;48.902;9.204;2024-03-23T09:59:41;2.20;;;1.00;;
7142;SDS011;3613;48.902;9.204;2024-03-23T10:02:06;1.20;;;1.10;;
7142;SDS011;3613;48.902;9.204;2024-03-23T10:04:39;2.00;;;1.20;;
7142;SDS011;3613;48.902;9.204;2024-03-23T10:07:18;1.63;;;1.20;;
7142;SDS011;3613;48.902;9.204;2024-03-23T10:09:45;2.17;;;1.20;;
7142;SDS011;3613;48.902;9.204;2024-03-23T10:12:12;1.50;;;1.20;;
7142;SDS011;3613;48.902;9.204;2024-03-23T10:14:42;1.33;;;1.00;;
7142;SDS011;3613;48.902;9.204;2024-03-23T10:19:38;1.20;;;1.10;;
7142;SDS011;3613;48.902;9.204;2024-03-23T10:22:09;2.50;;;1.40;;
7142;SDS011;3613;48.902;9.204;2024-03-23T10:24:40;4.87;;;1.50;;
7142;SDS011;3613;48.902;9.204;2024-03-23T10:27:06;4.67;;;2.10;;
7142;SDS011;3613;48.902;9.204;2024-03-23T10:29:34;4.33;;;2.27;;
7142;SDS011;3613;48.902;9.204;2024-03-23T10:32:09;5.33;;;2.20;;
7142;SDS011;3613;48.902;9.204;2024-03-23T10:34:36;3.70;;;2.30;;
7142;SDS011;3613;48.902;9.204;2024-03-23T10:37:02;2.67;;;1.70;;
7142;SDS011;3613;48.902;9.204;2024-03-23T10:39:38;5.10;;;2.30;;
7142;SDS011;3613;48.902;9.204;2024-03-23T10:42:05;5.40;;;2.33;;
7142;SDS011;3613;48.902;9.204;2024-03-23T10:44:32;3.67;;;2.20;;
7142;SDS011;3613;48.902;9.204;2024-03-23T10:46:58;4.63;;;2.40;;
7142;SDS011;3613;48.902;9.204;2024-03-23T10:49:29;4.80;;;2.30;;
7142;SDS011;3613;48.902;9.204;2024-03-23T10:52:02;4.00;;;2.00;;
7142;SDS011;3613;48.902;9.204;2024-03-23T10:54:33;4.77;;;2.30;;
7142;SDS011;3613;48.902;9.204;2024-03-23T11:00:02;3.07;;;1.70;;
7142;SDS011;3613;48.902;9.204;2024-03-23T11:02:29;2.67;;;2.30;;
7142;SDS011;3613;48.902;9.204;2024-03-23T11:04:54;6.13;;;2.70;;
7142;SDS011;3613;48.902;9.204;2024-03-23T11:09:55;4.40;;;2.00;;
7142;SDS011;3613;48.902;9.204;2024-03-23T11:14:57;3.90;;;2.17;;
7142;SDS011;3613;48.902;9.204;2024-03-23T11:17:24;2.93;;;2.07;;
7142;SDS011;3613;48.902;9.204;2024-03-23T11:20:00;3.00;;;1.93;;
7142;SDS011;3613;48.902;9.204;2024-03-23T11:25:21;3.13;;;2.10;;
7142;SDS011;3613;48.902;9.204;2024-03-23T11:27:48;3.57;;;1.80;;
7142;SDS011;3613;48.902;9.204;2024-03-23T11:32:50;3.93;;;2.13;;
7142;SDS011;3613;48.902;9.204;2024-03-23T11:38:02;3.13;;;2.07;;
7142;SDS011;3613;48.902;9.204;2024-03-23T11:40:43;4.30;;;2.30;;
7142;SDS011;3613;48.902;9.204;2024-03-23T11:43:14;2.67;;;1.90;;
7142;SDS011;3613;48.902;9.204;2024-03-23T11:45:50;2.83;;;2.00;;
7142;SDS011;3613;48.902;9.204;2024-03-23T11:48:18;4.27;;;1.90;;
7142;SDS011;3613;48.902;9.204;2024-03-23T11:50:46;3.03;;;2.10;;
7142;SDS011;3613;48.902;9.204;2024-03-23T11:55:45;2.97;;;2.00;;
7142;SDS011;3613;48.902;9.204;2024-03-23T11:58:15;4.17;;;2.00;;
7142;SDS011;3613;48.902;9.204;2024-03-23T12:03:22;2.67;;;2.13;;
7142;SDS011;3613;48.902;9.204;2024-03-23T12:05:51;3.10;;;2.20;;
7142;SDS011;3613;48.902;9.204;2024-03-23T12:08:18;3.53;;;2.10;;
7142;SDS011;3613;48.902;9.204;2024-03-23T12:10:46;2.57;;;1.80;;
7142;SDS011;3613;48.902;9.204;2024-03-23T12:13:22;4.13;;;2.07;;
7142;SDS011;3613;48.902;9.204;2024-03-23T12:15:49;3.03;;;2.20;;
7142;SDS011;3613;48.902;9.204;2024-03-23T12:18:16;3.27;;;2.10;;
7142;SDS011;3613;48.902;9.204;2024-03-23T12:20:42;2.90;;;2.00;;
7142;SDS011;3613;48.902;9.204;2024-03-23T12:23:08;2.53;;;1.87;;
7142;SDS011;3613;48.902;9.204;2024-03-23T12:25:39;3.13;;;2.30;;
7142;SDS011;3613;48.902;9.204;2024-03-23T12:28:06;3.10;;;1.97;;
7142;SDS011;3613;48.902;9.204;2024-03-23T12:30:32;2.67;;;2.07;;
7142;SDS011;3613;48.902;9.204;2024-03-23T12:33:04;2.70;;;1.90;;
7142;SDS011;3613;48.902;9.204;2024-03-23T12:35:31;2.50;;;2.10;;
7142;SDS011;3613;48.902;9.204;2024-03-23T12:37:57;3.27;;;2.00;;
7142;SDS011;3613;48.902;9.204;2024-03-23T12:40:22;2.23;;;2.00;;
7142;SDS011;3613;48.902;9.204;2024-03-23T12:42:48;4.80;;;2.40;;
7142;SDS011;3613;48.902;9.204;2024-03-23T12:45:14;3.67;;;2.17;;
7142;SDS011;3613;48.902;9.204;2024-03-23T12:47:40;4.80;;;2.20;;
7142;SDS011;3613;48.902;9.204;2024-03-23T12:50:05;3.73;;;2.07;;
7142;SDS011;3613;48.902;9.204;2024-03-23T12:52:34;3.67;;;2.17;;
7142;SDS011;3613;48.902;9.204;2024-03-23T12:54:59;3.47;;;2.03;;
7142;SDS011;3613;48.902;9.204;2024-03-23T12:57:25;2.20;;;1.87;;
7142;SDS011;3613;48.902;9.204;2024-03-23T12:59:51;3.13;;;1.90;;
7142;SDS011;3613;48.902;9.204;2024-03-23T13:02:18;2.87;;;1.67;;
7142;SDS011;3613;48.902;9.204;2024-03-23T13:04:45;3.80;;;2.20;;
7142;SDS011;3613;48.902;9.204;2024-03-23T13:07:14;2.63;;;2.10;;
7142;SDS011;3613;48.902;9.204;2024-03-23T13:09:40;3.07;;;2.00;;
7142;SDS011;3613;48.902;9.204;2024-03-23T13:12:05;2.67;;;1.97;;
7142;SDS011;3613;48.902;9.204;2024-03-23T13:14:31;3.80;;;2.23;;
7142;SDS011;3613;48.902;9.204;2024-03-23T13:16:57;3.23;;;2.07;;
7142;SDS011;3613;48.902;9.204;2024-03-23T13:19:23;5.40;;;2.10;;
7142;SDS011;3613;48.902;9.204;2024-03-23T13:21:52;3.03;;;2.00;;
7142;SDS011;3613;48.902;9.204;2024-03-23T13:24:23;3.43;;;2.00;;
7142;SDS011;3613;48.902;9.204;2024-03-23T13:26:52;3.40;;;2.17;;
7142;SDS011;3613;48.902;9.204;2024-03-23T13:29:18;3.40;;;2.30;;
7142;SDS011;3613;48.902;9.204;2024-03-23T13:31:47;5.43;;;2.10;;
7142;SDS011;3613;48.902;9.204;2024-03-23T13:34:16;2.90;;;2.27;;
7142;SDS011;3613;48.902;9.204;2024-03-23T13:36:46;4.00;;;2.20;;
7142;SDS011;3613;48.902;9.204;2024-03-23T13:39:12;3.40;;;2.30;;
7142;SDS011;3613;48.902;9.204;2024-03-23T13:41:44;3.33;;;2.00;;
7142;SDS011;3613;48.902;9.204;2024-03-23T13:44:12;4.10;;;2.00;;
7142;SDS011;3613;48.902;9.204;2024-03-23T13:46:39;3.37;;;2.47;;
7142;SDS011;3613;48.902;9.204;2024-03-23T13:49:13;5.17;;;2.33;;
7142;SDS011;3613;48.902;9.204;2024-03-23T13:51:51;2.73;;;1.93;;
7142;SDS011;3613;48.902;9.204;2024-03-23T13:54:17;3.40;;;2.10;;
7142;SDS011;3613;48.902;9.204;2024-03-23T13:56:43;3.63;;;2.17;;
7142;SDS011;3613;48.902;9.204;2024-03-23T13:59:09;3.10;;;2.30;;
7142;SDS011;3613;48.902;9.204;2024-03-23T14:01:35;2.40;;;1.90;;
7142;SDS011;3613;48.902;9.204;2024-03-23T14:04:01;5.90;;;2.40;;
7142;SDS011;3613;48.902;9.204;2024-03-23T14:06:26;2.93;;;2.13;;
7142;SDS011;3613;48.902;9.204;2024-03-23T14:08:54;2.40;;;1.90;;
7142;SDS011;3613;48.902;9.204;2024-03-23T14:11:24;2.30;;;1.90;;
7142;SDS011;3613;48.902;9.204;2024-03-23T14:13:51;3.23;;;1.90;;
7142;SDS011;3613;48.902;9.204;2024-03-23T14:16:18;2.73;;;2.10;;
7142;SDS011;3613;48.902;9.204;2024-03-23T14:18:45;2.77;;;2.10;;
7142;SDS011;3613;48.902;9.204;2024-03-23T14:21:11;4.07;;;2.00;;
7142;SDS011;3613;48.902;9.204;2024-03-23T14:23:39;2.67;;;1.97;;
7142;SDS011;3613;48.902;9.204;2024-03-23T14:26:08;3.30;;;2.13;;
7142;SDS011;3613;48.902;9.204;2024-03-23T14:28:33;2.80;;;1.90;;
7142;SDS011;3613;48.902;9.204;2024-03-23T14:31:00;3.57;;;2.10;;
7142;SDS011;3613;48.902;9.204;2024-03-23T14:33:26;3.37;;;1.90;;
7142;SDS011;3613;48.902;9.204;2024-03-23T14:35:57;3.67;;;1.90;;
7142;SDS011;3613;48.902;9.204;2024-03-23T14:38:22;3.23;;;1.80;;
7142;SDS011;3613;48.902;9.204;2024-03-23T14:40:48;3.27;;;1.90;;
7142;SDS011;3613;48.902;9.204;2024-03-23T14:43:14;3.43;;;2.00;;
7142;SDS011;3613;48.902;9.204;2024-03-23T14:48:35;2.43;;;2.03;;
7142;SDS011;3613;48.902;9.204;2024-03-23T14:51:01;2.57;;;1.90;;
7142;SDS011;3613;48.902;9.204;2024-03-23T14:53:30;3.30;;;2.20;;
7142;SDS011;3613;48.902;9.204;2024-03-23T14:55:57;2.27;;;2.00;;
7142;SDS011;3613;48.902;9.204;2024-03-23T14:58:23;3.73;;;1.97;;
7142;SDS011;3613;48.902;9.204;2024-03-23T15:00:51;3.13;;;2.23;;
7142;SDS011;3613;48.902;9.204;2024-03-23T15:03:19;3.47;;;2.10;;
7142;SDS011;3613;48.902;9.204;2024-03-23T15:08:22;2.83;;;2.03;;
7142;SDS011;3613;48.902;9.204;2024-03-23T15:10:48;3.47;;;2.20;;
7142;SDS011;3613;48.902;9.204;2024-03-23T15:13:17;2.87;;;2.00;;
7142;SDS011;3613;48.902;9.204;2024-03-23T15:15:43;3.03;;;2.00;;
7142;SDS011;3613;48.902;9.204;2024-03-23T15:18:12;3.70;;;2.20;;
7142;SDS011;3613;48.902;9.204;2024-03-23T15:20:39;2.63;;;1.73;;
7142;SDS011;3613;48.902;9.204;2024-03-23T15:23:16;3.33;;;2.07;;
7142;SDS011;3613;48.902;9.204;2024-03-23T15:25:42;3.00;;;2.20;;
7142;SDS011;3613;48.902;9.204;2024-03-23T15:28:07;2.00;;;1.70;;
7142;SDS011;3613;48.902;9.204;2024-03-23T15:30:33;3.03;;;1.90;;
7142;SDS011;3613;48.902;9.204;2024-03-23T15:32:58;3.00;;;2.00;;
7142;SDS011;3613;48.902;9.204;2024-03-23T15:35:24;3.27;;;2.10;;
7142;SDS011;3613;48.902;9.204;2024-03-23T15:37:50;3.03;;;2.00;;
7142;SDS011;3613;48.902;9.204;2024-03-23T15:40:15;3.17;;;2.20;;
7142;SDS011;3613;48.902;9.204;2024-03-23T15:42:44;3.13;;;2.27;;
7142;SDS011;3613;48.902;9.204;2024-03-23T15:45:09;3.60;;;1.93;;
7142;SDS011;3613;48.902;9.204;2024-03-23T15:47:37;2.83;;;1.70;;
7142;SDS011;3613;48.902;9.204;2024-03-23T15:50:08;3.53;;;1.93;;
7142;SDS011;3613;48.902;9.204;2024-03-23T15:52:36;2.03;;;1.70;;
7142;SDS011;3613;48.902;9.204;2024-03-23T15:55:05;3.57;;;2.00;;
7142;SDS011;3613;48.902;9.204;2024-03-23T15:57:35;3.00;;;1.90;;
7142;SDS011;3613;48.902;9.204;2024-03-23T16:00:01;2.10;;;1.80;;
7142;SDS011;3613;48.902;9.204;2024-03-23T16:02:27;2.87;;;1.90;;
7142;SDS011;3613;48.902;9.204;2024-03-23T16:04:53;2.60;;;2.13;;
7142;SDS011;3613;48.902;9.204;2024-03-23T16:07:19;1.93;;;1.50;;
7142;SDS011;3613;48.902;9.204;2024-03-23T16:09:45;4.10;;;2.17;;
7142;SDS011;3613;48.902;9.204;2024-03-23T16:12:13;2.47;;;1.70;;
7142;SDS011;3613;48.902;9.204;2024-03-23T16:14:38;2.33;;;2.10;;
7142;SDS011;3613;48.902;9.204;2024-03-23T16:17:04;2.67;;;2.10;;
7142;SDS011;3613;48.902;9.204;2024-03-23T16:19:29;3.77;;;2.03;;
7142;SDS011;3613;48.902;9.204;2024-03-23T16:21:55;2.63;;;1.83;;
7142;SDS011;3613;48.902;9.204;2024-03-23T16:24:21;2.20;;;1.93;;
7142;SDS011;3613;48.902;9.204;2024-03-23T16:26:46;2.97;;;1.80;;
7142;SDS011;3613;48.902;9.204;2024-03-23T16:29:14;1.97;;;1.77;;
7142;SDS011;3613;48.902;9.204;2024-03-23T16:31:40;1.57;;;1.47;;
7142;SDS011;3613;48.902;9.204;2024-03-23T16:34:05;1.97;;;1.60;;
7142;SDS011;3613;48.902;9.204;2024-03-23T16:36:31;1.93;;;1.63;;
7142;SDS011;3613;48.902;9.204;2024-03-23T16:38:57;2.60;;;1.80;;